Time;durP1;ratioP1;P1;durP2;ratioP2;P2;SDS_P1;SDS_P2;PMS_P1;PMS_P2;Temp;Humidity;BMP_temperature;BMP_pressure;BME280_temperature;BME280_humidity;BME280_pressure;Samples;Min_cycle;Max_cycle;Signal;HPM_P1;HPM_P2
2021/07/01 00:00:15;;;;;;;1.55;1.42;;;;;;;;;;5002041;28;20027;-74
2021/07/01 00:02:42;;;;;;;1.88;1.40;;;;;;;;;;5001777;28;20026;-76
2021/07/01 00:05:10;;;;;;;2.47;1.30;;;;;;;;;;5000842;28;20081;-76
2021/07/01 00:07:36;;;;;;;2.13;1.77;;;;;;;;;;5002361;28;20022;-75
2021/07/01 00:10:05;;;;;;;3.33;1.60;;;;;;;;;;5001871;28;20408;-75
2021/07/01 00:12:32;;;;;;;2.78;1.35;;;;;;;;;;5000183;28;20023;-75
2021/07/01 00:14:59;;;;;;;1.77;1.60;;;;;;;;;;5000009;28;20041;-76
2021/07/01 00:17:25;;;;;;;2.10;1.80;;;;;;;;;;4999376;28;20030;-75
2021/07/01 00:19:51;;;;;;;3.07;1.80;;;;;;;;;;5002681;28;20061;-74
2021/07/01 00:22:17;;;;;;;2.27;1.70;;;;;;;;;;4999544;28;20022;-75
2021/07/01 00:24:43;;;;;;;3.47;1.73;;;;;;;;;;5000744;28;20038;-74
2021/07/01 00:27:09;;;;;;;2.00;1.80;;;;;;;;;;4999941;28;20029;-75
2021/07/01 00:29:35;;;;;;;3.20;1.83;;;;;;;;;;5000553;28;20022;-76
2021/07/01 00:32:01;;;;;;;2.17;1.97;;;;;;;;;;5000227;28;20533;-76
2021/07/01 00:34:27;;;;;;;2.50;1.80;;;;;;;;;;4999970;28;20045;-75
2021/07/01 00:36:53;;;;;;;5.43;2.40;;;;;;;;;;4999286;28;20033;-74
2021/07/01 00:39:19;;;;;;;2.47;2.27;;;;;;;;;;5000140;28;20029;-74
2021/07/01 00:41:45;;;;;;;1.95;1.80;;;;;;;;;;5000015;28;20056;-74
2021/07/01 00:44:11;;;;;;;2.85;2.00;;;;;;;;;;5006191;28;20049;-75
2021/07/01 00:46:37;;;;;;;2.33;2.13;;;;;;;;;;5004365;28;20030;-75
2021/07/01 00:49:03;;;;;;;5.07;2.03;;;;;;;;;;5005809;28;20033;-75
2021/07/01 00:51:29;;;;;;;2.60;2.13;;;;;;;;;;5003431;28;20064;-76
2021/07/01 00:53:55;;;;;;;3.73;2.20;;;;;;;;;;5004045;28;20042;-74
2021/07/01 00:56:22;;;;;;;2.93;2.20;;;;;;;;;;5005952;28;20100;-76
2021/07/01 00:58:51;;;;;;;2.85;2.50;;;;;;;;;;5004930;28;20471;-74
2021/07/01 01:01:17;;;;;;;3.22;2.40;;;;;;;;;;5004298;28;20017;-76
2021/07/01 01:03:46;;;;;;;3.83;2.63;;;;;;;;;;5004709;28;20045;-77
2021/07/01 01:06:14;;;;;;;2.72;2.35;;;;;;;;;;5001947;28;20492;-75
2021/07/01 01:08:40;;;;;;;2.90;2.60;;;;;;;;;;5003783;28;21253;-75
2021/07/01 01:11:06;;;;;;;2.87;2.17;;;;;;;;;;5005427;28;20030;-74
2021/07/01 01:13:33;;;;;;;4.97;2.87;;;;;;;;;;5004244;28;20275;-75
2021/07/01 01:16:03;;;;;;;3.47;2.30;;;;;;;;;;5003595;28;20259;-75
2021/07/01 01:18:30;;;;;;;3.63;2.67;;;;;;;;;;5002270;28;20066;-74
2021/07/01 01:20:57;;;;;;;2.95;2.33;;;;;;;;;;5000964;28;20018;-76
2021/07/01 01:23:23;;;;;;;2.78;2.28;;;;;;;;;;4999057;28;20043;-75
2021/07/01 01:25:50;;;;;;;3.53;2.60;;;;;;;;;;4999471;28;20100;-74
2021/07/01 01:28:17;;;;;;;5.55;2.70;;;;;;;;;;4998630;28;20030;-75
2021/07/01 01:30:43;;;;;;;3.47;2.45;;;;;;;;;;4999132;28;20507;-74
2021/07/01 01:33:09;;;;;;;2.87;2.40;;;;;;;;;;4998322;28;20038;-75
2021/07/01 01:35:36;;;;;;;3.15;2.33;;;;;;;;;;5000112;28;20105;-75
2021/07/01 01:38:03;;;;;;;3.97;2.75;;;;;;;;;;5000760;28;20440;-75
2021/07/01 01:40:29;;;;;;;4.35;3.00;;;;;;;;;;4998768;28;20049;-75
2021/07/01 01:42:55;;;;;;;3.92;2.58;;;;;;;;;;4998674;28;20130;-78
2021/07/01 01:45:21;;;;;;;4.50;2.60;;;;;;;;;;4999491;28;20081;-75
2021/07/01 01:47:51;;;;;;;2.90;2.60;;;;;;;;;;4999128;28;20259;-76
2021/07/01 01:50:20;;;;;;;5.15;2.67;;;;;;;;;;4998331;28;20029;-74
2021/07/01 01:52:47;;;;;;;4.05;2.63;;;;;;;;;;4999317;28;20105;-75
2021/07/01 01:55:14;;;;;;;3.63;2.67;;;;;;;;;;4998812;28;20054;-74
2021/07/01 01:57:47;;;;;;;4.88;2.80;;;;;;;;;;4998989;28;20077;-74
2021/07/01 02:00:13;;;;;;;3.25;2.60;;;;;;;;;;4999841;28;20472;-74
2021/07/01 02:02:40;;;;;;;3.08;2.58;;;;;;;;;;4996720;28;20554;-74
2021/07/01 02:05:06;;;;;;;3.05;2.75;;;;;;;;;;4998854;28;20022;-75
2021/07/01 02:07:33;;;;;;;2.83;2.53;;;;;;;;;;4997820;28;20055;-74
2021/07/01 02:09:59;;;;;;;4.32;2.90;;;;;;;;;;4997906;28;20026;-75
2021/07/01 02:12:25;;;;;;;2.93;2.70;;;;;;;;;;4998569;28;20037;-75
2021/07/01 02:14:51;;;;;;;3.65;2.80;;;;;;;;;;4999398;28;20101;-74
2021/07/01 02:17:17;;;;;;;5.00;2.80;;;;;;;;;;4995905;28;20394;-74
2021/07/01 02:19:43;;;;;;;3.08;2.70;;;;;;;;;;4997006;28;20026;-75
2021/07/01 02:22:09;;;;;;;3.67;2.30;;;;;;;;;;5027702;28;20423;-74
2021/07/01 02:24:36;;;;;;;4.82;2.83;;;;;;;;;;4997786;28;20030;-76
2021/07/01 02:27:03;;;;;;;3.17;2.55;;;;;;;;;;5018581;28;20560;-76
2021/07/01 02:29:29;;;;;;;6.50;3.03;;;;;;;;;;4995793;28;20042;-76
2021/07/01 02:31:55;;;;;;;4.13;2.90;;;;;;;;;;4998399;28;20329;-74
2021/07/01 02:34:21;;;;;;;3.10;2.80;;;;;;;;;;5029592;28;20169;-74
2021/07/01 02:36:47;;;;;;;3.20;2.63;;;;;;;;;;4997893;28;20022;-74
2021/07/01 02:39:13;;;;;;;4.10;2.65;;;;;;;;;;4998688;28;20030;-74
2021/07/01 02:41:39;;;;;;;3.28;2.58;;;;;;;;;;4997684;28;20500;-77
2021/07/01 02:44:05;;;;;;;3.92;2.75;;;;;;;;;;4997063;28;20037;-74
2021/07/01 02:46:31;;;;;;;3.42;2.58;;;;;;;;;;4996036;28;20034;-74
2021/07/01 02:48:57;;;;;;;3.80;2.70;;;;;;;;;;4995830;28;20030;-77
2021/07/01 02:51:23;;;;;;;3.92;2.55;;;;;;;;;;4996447;28;20267;-75
2021/07/01 02:53:49;;;;;;;3.78;2.80;;;;;;;;;;5028393;28;20030;-74
2021/07/01 02:56:16;;;;;;;3.60;2.70;;;;;;;;;;4998171;28;20025;-74
2021/07/01 02:58:42;;;;;;;3.37;2.60;;;;;;;;;;5029347;28;20026;-74
2021/07/01 03:01:08;;;;;;;4.00;2.78;;;;;;;;;;4998222;28;20307;-75
2021/07/01 03:03:34;;;;;;;5.53;2.50;;;;;;;;;;4996677;28;20038;-74
2021/07/01 03:06:00;;;;;;;3.80;2.78;;;;;;;;;;4995763;28;20034;-74
2021/07/01 03:08:26;;;;;;;3.97;2.97;;;;;;;;;;4995741;28;20021;-74
2021/07/01 03:10:52;;;;;;;4.50;2.60;;;;;;;;;;4997438;28;20271;-76
2021/07/01 03:13:18;;;;;;;3.60;2.70;;;;;;;;;;5002127;28;20022;-74
2021/07/01 03:15:44;;;;;;;3.13;2.80;;;;;;;;;;5001662;28;20041;-77
2021/07/01 03:18:10;;;;;;;6.93;2.92;;;;;;;;;;5000952;28;20502;-74
2021/07/01 03:20:36;;;;;;;5.13;3.05;;;;;;;;;;5000893;28;20038;-78
2021/07/01 03:23:02;;;;;;;3.58;2.90;;;;;;;;;;5004047;28;20026;-74
2021/07/01 03:25:29;;;;;;;3.90;3.20;;;;;;;;;;5004165;28;20565;-74
2021/07/01 03:27:56;;;;;;;8.32;3.28;;;;;;;;;;5005192;28;20130;-74
2021/07/01 03:30:22;;;;;;;4.78;2.85;;;;;;;;;;5006149;28;20052;-75
2021/07/01 03:32:48;;;;;;;5.70;3.13;;;;;;;;;;5006506;28;20034;-74
2021/07/01 03:35:16;;;;;;;5.38;2.78;;;;;;;;;;5008580;28;20399;-76
2021/07/01 03:37:42;;;;;;;5.30;2.80;;;;;;;;;;5009348;28;20026;-75
2021/07/01 03:40:09;;;;;;;4.18;2.63;;;;;;;;;;5011436;28;20394;-74
2021/07/01 03:42:36;;;;;;;4.18;2.90;;;;;;;;;;5010714;28;20375;-74
2021/07/01 03:45:02;;;;;;;4.80;2.80;;;;;;;;;;5011636;28;20113;-76
2021/07/01 03:47:28;;;;;;;3.60;2.90;;;;;;;;;;5010275;28;20092;-75
2021/07/01 03:49:54;;;;;;;4.93;2.80;;;;;;;;;;5010777;28;20036;-76
2021/07/01 03:52:20;;;;;;;3.83;2.83;;;;;;;;;;5011166;28;20022;-74
2021/07/01 03:54:46;;;;;;;5.27;2.80;;;;;;;;;;5010946;28;20018;-73
2021/07/01 03:57:12;;;;;;;4.07;2.65;;;;;;;;;;5010018;28;20346;-74
2021/07/01 03:59:38;;;;;;;3.38;2.80;;;;;;;;;;5010122;28;20105;-78
2021/07/01 04:02:04;;;;;;;5.23;3.00;;;;;;;;;;5010941;28;20057;-74
2021/07/01 04:04:30;;;;;;;2.90;2.57;;;;;;;;;;5009368;28;20029;-74
2021/07/01 04:06:56;;;;;;;3.75;2.60;;;;;;;;;;5007741;28;20332;-74
2021/07/01 04:09:22;;;;;;;3.67;2.88;;;;;;;;;;5009988;28;20026;-74
2021/07/01 04:11:49;;;;;;;4.50;2.78;;;;;;;;;;5009800;28;20026;-73
2021/07/01 04:14:17;;;;;;;6.30;2.88;;;;;;;;;;5009250;28;20148;-74
2021/07/01 04:16:44;;;;;;;3.35;2.65;;;;;;;;;;5004362;28;20133;-74
2021/07/01 04:19:10;;;;;;;5.07;2.67;;;;;;;;;;5005322;28;20080;-75
2021/07/01 04:21:36;;;;;;;2.50;2.30;;;;;;;;;;5006303;28;20026;-74
2021/07/01 04:24:04;;;;;;;4.43;2.30;;;;;;;;;;5004809;28;20038;-74
2021/07/01 04:26:30;;;;;;;;;;;;;;;;;;5005203;28;20034;-74
2021/07/01 04:28:56;;;;;;;5.80;2.58;;;;;;;;;;5005863;28;19905;-74
2021/07/01 04:31:22;;;;;;;5.17;2.83;;;;;;;;;;5005644;28;20072;-75
2021/07/01 04:33:48;;;;;;;3.90;2.60;;;;;;;;;;5001275;28;20049;-73
2021/07/01 04:36:14;;;;;;;2.50;2.30;;;;;;;;;;4988299;28;20030;-75
2021/07/01 04:38:41;;;;;;;2.95;2.60;;;;;;;;;;4987817;28;20030;-75
2021/07/01 04:41:07;;;;;;;2.97;2.67;;;;;;;;;;4988921;28;20022;-74
2021/07/01 04:43:33;;;;;;;3.85;2.35;;;;;;;;;;4988837;28;20037;-75
2021/07/01 04:45:59;;;;;;;5.85;2.42;;;;;;;;;;4989289;28;20403;-74
2021/07/01 04:48:25;;;;;;;3.85;2.53;;;;;;;;;;4987801;28;20650;-74
2021/07/01 04:50:51;;;;;;;2.83;2.50;;;;;;;;;;4991776;28;20057;-73
2021/07/01 04:53:17;;;;;;;5.27;2.53;;;;;;;;;;5013971;28;20569;-74
2021/07/01 04:55:43;;;;;;;3.70;2.30;;;;;;;;;;5014102;28;20037;-74
2021/07/01 04:58:09;;;;;;;4.35;2.40;;;;;;;;;;5011995;28;20037;-73
2021/07/01 05:00:36;;;;;;;3.17;2.38;;;;;;;;;;5012199;28;20018;-74
2021/07/01 05:03:03;;;;;;;3.80;2.33;;;;;;;;;;5013311;28;20022;-73
2021/07/01 05:05:29;;;;;;;4.28;2.20;;;;;;;;;;5014325;28;20052;-75
2021/07/01 05:07:55;;;;;;;4.90;2.40;;;;;;;;;;5010988;28;20065;-75
2021/07/01 05:10:21;;;;;;;4.53;2.17;;;;;;;;;;5013473;28;20251;-74
2021/07/01 05:12:47;;;;;;;2.83;2.20;;;;;;;;;;5012613;28;20368;-73
2021/07/01 05:15:13;;;;;;;4.20;2.33;;;;;;;;;;5014260;28;20041;-74
2021/07/01 05:17:39;;;;;;;7.20;2.60;;;;;;;;;;5013672;28;20018;-74
2021/07/01 05:20:07;;;;;;;4.30;2.17;;;;;;;;;;5012525;28;20029;-74
2021/07/01 05:22:34;;;;;;;6.00;2.47;;;;;;;;;;3626405;28;10000855;-74
2021/07/01 05:25:00;;;;;;;4.07;2.30;;;;;;;;;;5011841;28;20026;-75
2021/07/01 05:27:26;;;;;;;7.33;2.33;;;;;;;;;;5011671;28;20498;-74
2021/07/01 05:29:52;;;;;;;4.65;2.20;;;;;;;;;;5044824;28;20022;-74
2021/07/01 05:32:18;;;;;;;4.30;2.40;;;;;;;;;;5011728;28;20028;-74
2021/07/01 05:34:44;;;;;;;6.05;2.45;;;;;;;;;;5010333;28;20032;-74
2021/07/01 05:37:11;;;;;;;7.63;2.80;;;;;;;;;;5012254;28;20444;-73
2021/07/01 05:39:37;;;;;;;9.32;2.95;;;;;;;;;;5012796;28;20053;-73
2021/07/01 05:42:04;;;;;;;11.32;2.85;;;;;;;;;;5011692;28;20030;-74
2021/07/01 05:44:30;;;;;;;8.85;3.38;;;;;;;;;;5011951;28;20530;-73
2021/07/01 05:46:58;;;;;;;7.47;2.53;;;;;;;;;;5012026;28;20174;-73
2021/07/01 05:49:24;;;;;;;7.85;2.60;;;;;;;;;;5012025;28;20038;-73
2021/07/01 05:51:55;;;;;;;8.43;2.75;;;;;;;;;;5012875;28;20427;-73
2021/07/01 05:56:47;;;;;;;3.80;2.20;;;;;;;;;;5012290;28;20034;-73
2021/07/01 05:59:14;;;;;;;8.55;2.58;;;;;;;;;;5012879;28;20072;-73
2021/07/01 06:01:40;;;;;;;6.05;2.40;;;;;;;;;;5011190;28;20059;-75
2021/07/01 06:04:07;;;;;;;6.30;2.25;;;;;;;;;;5011116;28;20554;-73
2021/07/01 06:06:37;;;;;;;7.75;2.60;;;;;;;;;;5009725;28;20061;-73
2021/07/01 06:09:06;;;;;;;7.72;2.30;;;;;;;;;;5012173;28;20120;-73
2021/07/01 06:11:35;;;;;;;6.65;2.25;;;;;;;;;;5011737;28;20026;-73
2021/07/01 06:14:02;;;;;;;8.88;2.42;;;;;;;;;;5011581;28;20644;-73
2021/07/01 06:16:31;;;;;;;7.82;2.33;;;;;;;;;;5012598;28;20068;-74
2021/07/01 06:18:58;;;;;;;6.25;2.22;;;;;;;;;;5011357;28;20025;-75
2021/07/01 06:21:24;;;;;;;;;;;;;;;;;;5012420;28;20101;-74
2021/07/01 06:23:50;;;;;;;4.90;2.10;;;;;;;;;;5012688;28;20003;-74
2021/07/01 06:26:24;;;;;;;11.33;2.20;;;;;;;;;;5012153;28;20033;-74
2021/07/01 06:28:50;;;;;;;7.20;1.92;;;;;;;;;;5011729;28;20224;-74
2021/07/01 06:31:18;;;;;;;7.38;2.30;;;;;;;;;;5011634;28;20034;-74
2021/07/01 06:33:45;;;;;;;6.80;1.90;;;;;;;;;;5006231;28;20050;-75
2021/07/01 06:36:12;;;;;;;3.10;1.60;;;;;;;;;;5010009;28;20021;-74
2021/07/01 06:38:38;;;;;;;;;;;;;;;;;;5007928;28;20029;-75
2021/07/01 06:41:07;;;;;;;2.80;1.90;;;;;;;;;;5011580;28;19906;-75
2021/07/01 06:43:35;;;;;;;8.60;1.88;;;;;;;;;;5015505;28;20305;-79
2021/07/01 06:46:01;;;;;;;5.72;1.67;;;;;;;;;;5014012;28;20057;-80
2021/07/01 06:48:28;;;;;;;2.03;1.40;;;;;;;;;;5013881;28;20076;-80
2021/07/01 06:50:57;;;;;;;5.25;1.83;;;;;;;;;;5012085;28;20358;-81
2021/07/01 06:53:23;;;;;;;6.38;1.63;;;;;;;;;;5008258;28;20053;-82
2021/07/01 06:55:53;;;;;;;3.03;1.63;;;;;;;;;;5008907;28;20475;-79
2021/07/01 06:58:20;;;;;;;4.75;1.63;;;;;;;;;;5007091;28;20036;-80
2021/07/01 07:00:46;;;;;;;4.13;1.35;;;;;;;;;;5013268;28;20037;-79
2021/07/01 07:03:17;;;;;;;2.67;1.58;;;;;;;;;;5011279;28;20030;-77
2021/07/01 07:05:50;;;;;;;2.75;1.50;;;;;;;;;;5013180;28;20069;-79
2021/07/01 07:08:17;;;;;;;5.68;1.77;;;;;;;;;;5011739;28;20029;-77
2021/07/01 07:10:44;;;;;;;5.53;1.50;;;;;;;;;;5010947;28;20063;-75
2021/07/01 07:13:11;;;;;;;4.38;1.75;;;;;;;;;;5011193;28;20483;-77
2021/07/01 07:15:38;;;;;;;2.28;1.65;;;;;;;;;;5013138;28;20476;-78
2021/07/01 07:18:10;;;;;;;8.55;2.15;;;;;;;;;;5010970;28;20030;-77
2021/07/01 07:20:38;;;;;;;7.57;1.85;;;;;;;;;;5009972;28;20026;-78
2021/07/01 07:23:05;;;;;;;3.60;2.00;;;;;;;;;;5000359;28;20038;-74
2021/07/01 07:25:31;;;;;;;4.93;2.00;;;;;;;;;;5002080;28;20026;-73
2021/07/01 07:29:44;;;;;;;6.03;2.40;;;;;;;;;;5112748;27;20392;-77
2021/07/01 07:32:13;;;;;;;4.80;2.47;;;;;;;;;;5104684;28;20123;-78
2021/07/01 07:34:40;;;;;;;4.30;2.38;;;;;;;;;;5106785;28;20028;-79
2021/07/01 07:37:06;;;;;;;7.18;2.85;;;;;;;;;;5109234;28;20032;-80
2021/07/01 07:39:33;;;;;;;6.60;3.35;;;;;;;;;;5102494;28;20051;-80
2021/07/01 07:41:59;;;;;;;5.53;2.90;;;;;;;;;;5111237;28;20028;-83
2021/07/01 07:44:26;;;;;;;8.15;3.53;;;;;;;;;;5108089;28;20107;-85
2021/07/01 07:46:52;;;;;;;17.13;4.68;;;;;;;;;;5112279;27;20015;-82
2021/07/01 07:49:19;;;;;;;18.23;5.47;;;;;;;;;;5107072;28;20027;-81
2021/07/01 07:51:48;;;;;;;13.93;5.90;;;;;;;;;;5105999;27;20019;-81
2021/07/01 07:54:16;;;;;;;13.43;5.05;;;;;;;;;;5117500;28;20028;-80
2021/07/01 07:56:44;;;;;;;13.32;5.05;;;;;;;;;;5110244;28;20107;-82
2021/07/01 07:59:10;;;;;;;9.73;4.60;;;;;;;;;;5113751;28;20032;-81
2021/07/01 08:01:38;;;;;;;9.75;4.63;;;;;;;;;;5120067;27;20342;-80
2021/07/01 08:04:05;;;;;;;11.02;5.07;;;;;;;;;;5117180;27;20036;-81
2021/07/01 08:06:32;;;;;;;11.48;5.20;;;;;;;;;;5107740;28;20028;-80
2021/07/01 08:09:00;;;;;;;10.45;5.30;;;;;;;;;;5108631;28;20028;-81
2021/07/01 08:11:26;;;;;;;14.07;5.05;;;;;;;;;;5099698;28;20016;-81
2021/07/01 08:13:59;;;;;;;8.10;4.30;;;;;;;;;;5090540;28;20025;-81
2021/07/01 08:16:25;;;;;;;7.70;4.07;;;;;;;;;;5111188;28;20076;-81
2021/07/01 08:18:51;;;;;;;8.70;4.20;;;;;;;;;;5105301;28;20028;-81
2021/07/01 08:21:17;;;;;;;6.30;3.87;;;;;;;;;;5102018;28;20132;-79
2021/07/01 08:23:44;;;;;;;6.10;3.92;;;;;;;;;;5109708;28;20100;-80
2021/07/01 08:26:11;;;;;;;4.72;3.30;;;;;;;;;;5092996;28;20547;-81
2021/07/01 08:28:37;;;;;;;9.07;3.83;;;;;;;;;;5101800;28;20444;-80
2021/07/01 08:31:17;;;;;;;5.90;3.40;;;;;;;;;;5107502;28;20026;-82
2021/07/01 08:33:44;;;;;;;9.35;4.43;;;;;;;;;;5089620;28;20015;-82
2021/07/01 08:36:15;;;;;;;10.25;3.92;;;;;;;;;;5095155;28;20024;-82
2021/07/01 08:38:42;;;;;;;8.77;4.53;;;;;;;;;;5109885;28;20059;-79
2021/07/01 08:41:11;;;;;;;11.50;4.03;;;;;;;;;;5095733;28;20053;-79
2021/07/01 08:43:56;;;;;;;8.15;4.00;;;;;;;;;;5097158;28;20063;-81
2021/07/01 08:46:43;;;;;;;11.93;3.87;;;;;;;;;;5108651;28;20050;-81
2021/07/01 08:49:09;;;;;;;12.00;4.00;;;;;;;;;;5103779;28;20031;-80
2021/07/01 08:51:40;;;;;;;8.60;3.90;;;;;;;;;;5104696;28;20035;-78
2021/07/01 08:54:24;;;;;;;8.63;3.83;;;;;;;;;;5106554;28;20380;-81
2021/07/01 08:56:51;;;;;;;9.70;3.72;;;;;;;;;;5105077;28;20119;-79
2021/07/01 08:59:19;;;;;;;8.38;3.92;;;;;;;;;;5109883;28;20020;-79
2021/07/01 09:01:48;;;;;;;7.63;3.80;;;;;;;;;;5111072;28;20028;-79
2021/07/01 09:04:15;;;;;;;5.28;3.90;;;;;;;;;;5120231;28;20416;-79
2021/07/01 09:06:41;;;;;;;6.20;3.80;;;;;;;;;;5101561;28;20039;-82
2021/07/01 09:09:08;;;;;;;6.50;4.00;;;;;;;;;;5095627;28;20061;-79
2021/07/01 09:11:36;;;;;;;4.60;3.40;;;;;;;;;;5093124;28;20266;-81
2021/07/01 09:14:04;;;;;;;10.50;4.20;;;;;;;;;;5098662;28;20399;-80
2021/07/01 09:16:31;;;;;;;6.78;3.97;;;;;;;;;;5096013;28;20039;-80
2021/07/01 09:18:59;;;;;;;5.60;3.97;;;;;;;;;;5096160;28;20024;-78
2021/07/01 09:21:25;;;;;;;9.27;4.07;;;;;;;;;;5111880;28;20039;-80
2021/07/01 09:23:52;;;;;;;6.82;4.40;;;;;;;;;;5116532;28;20023;-80
2021/07/01 09:26:19;;;;;;;8.25;4.57;;;;;;;;;;5117021;28;20076;-83
2021/07/01 09:28:46;;;;;;;6.43;3.70;;;;;;;;;;5101388;28;20056;-82
2021/07/01 09:31:12;;;;;;;;;;;;;;;;;;5081764;28;20037;-81
2021/07/01 09:33:39;;;;;;;8.93;4.43;;;;;;;;;;5087055;28;19919;-84
2021/07/01 09:36:06;;;;;;;6.63;3.83;;;;;;;;;;5077572;28;20606;-79
2021/07/01 09:38:33;;;;;;;7.70;3.90;;;;;;;;;;5076139;28;20093;-82
2021/07/01 09:41:33;;;;;;;5.32;3.85;;;;;;;;;;5068600;28;20904;-78
2021/07/01 09:44:01;;;;;;;7.05;4.25;;;;;;;;;;5068568;28;20321;-81
2021/07/01 09:46:30;;;;;;;9.07;4.22;;;;;;;;;;5070794;28;20020;-81
2021/07/01 09:48:58;;;;;;;11.18;4.10;;;;;;;;;;5092229;28;20024;-86
2021/07/01 09:51:28;;;;;;;5.45;3.58;;;;;;;;;;5093222;28;20024;-85
2021/07/01 09:53:55;;;;;;;5.78;3.80;;;;;;;;;;5093196;28;20024;-86
2021/07/01 09:56:26;;;;;;;8.07;3.97;;;;;;;;;;5092597;28;20020;-83
2021/07/01 09:59:00;;;;;;;19.92;5.65;;;;;;;;;;5092314;28;20025;-84
2021/07/01 10:01:27;;;;;;;9.35;4.20;;;;;;;;;;5051791;28;20025;-81
2021/07/01 10:03:57;;;;;;;8.85;4.05;;;;;;;;;;5065728;28;20102;-81
2021/07/01 10:06:24;;;;;;;6.47;3.60;;;;;;;;;;5065190;28;20396;-84
2021/07/01 10:08:50;;;;;;;7.07;3.45;;;;;;;;;;5070928;28;20444;-83
2021/07/01 10:11:29;;;;;;;6.10;3.22;;;;;;;;;;5073330;28;20020;-87
2021/07/01 10:13:55;;;;;;;3.70;3.25;;;;;;;;;;5068145;28;20017;-85
2021/07/01 10:16:29;;;;;;;4.75;3.17;;;;;;;;;;5054413;28;20091;-85
2021/07/01 10:18:57;;;;;;;6.78;3.47;;;;;;;;;;5058835;28;20409;-84
2021/07/01 10:21:23;;;;;;;3.75;2.95;;;;;;;;;;5050966;28;20738;-83
2021/07/01 10:23:51;;;;;;;5.55;3.10;;;;;;;;;;5052212;28;20029;-86
2021/07/01 10:26:23;;;;;;;5.55;3.08;;;;;;;;;;5051994;28;20021;-84
2021/07/01 10:29:00;;;;;;;3.70;2.90;;;;;;;;;;5051701;28;20025;-83
2021/07/01 10:31:26;;;;;;;6.93;2.75;;;;;;;;;;5062547;28;20032;-81
2021/07/01 10:33:58;;;;;;;5.53;2.72;;;;;;;;;;5054049;28;20746;-82
2021/07/01 10:36:26;;;;;;;4.55;2.70;;;;;;;;;;5060762;28;20056;-82
2021/07/01 10:38:53;;;;;;;21.65;3.70;;;;;;;;;;5054968;28;20070;-82
2021/07/01 10:41:33;;;;;;;9.48;3.33;;;;;;;;;;5056471;28;20052;-84
2021/07/01 10:43:59;;;;;;;9.48;3.10;;;;;;;;;;5056221;28;20013;-83
2021/07/01 10:46:38;;;;;;;23.42;3.88;;;;;;;;;;5058979;28;20031;-83
2021/07/01 10:49:05;;;;;;;8.50;3.30;;;;;;;;;;5056310;28;20021;-83
2021/07/01 10:51:31;;;;;;;18.35;3.25;;;;;;;;;;5048695;28;20507;-83
2021/07/01 10:54:10;;;;;;;7.72;2.95;;;;;;;;;;5041159;28;20025;-82
2021/07/01 10:56:41;;;;;;;5.57;2.92;;;;;;;;;;5043766;28;20021;-82
2021/07/01 10:59:11;;;;;;;6.72;3.10;;;;;;;;;;5047003;28;20108;-81
2021/07/01 11:01:38;;;;;;;8.30;3.10;;;;;;;;;;5040032;28;20022;-82
2021/07/01 11:04:04;;;;;;;8.30;3.22;;;;;;;;;;5042693;28;20066;-82
2021/07/01 11:06:31;;;;;;;8.88;2.90;;;;;;;;;;5046663;28;20025;-82
2021/07/01 11:08:57;;;;;;;7.88;2.90;;;;;;;;;;5040002;28;20021;-83
2021/07/01 11:11:30;;;;;;;6.10;2.90;;;;;;;;;;5041978;28;20512;-82
2021/07/01 11:14:00;;;;;;;5.35;2.80;;;;;;;;;;5048211;28;20504;-81
2021/07/01 11:16:38;;;;;;;5.53;2.92;;;;;;;;;;5043024;28;20037;-82
2021/07/01 11:19:04;;;;;;;5.60;2.83;;;;;;;;;;5042985;28;20451;-82
2021/07/01 11:21:30;;;;;;;7.55;3.05;;;;;;;;;;5041942;28;20108;-82
2021/07/01 11:24:15;;;;;;;7.60;3.40;;;;;;;;;;5040131;28;20021;-82
2021/07/01 11:26:43;;;;;;;5.28;2.58;;;;;;;;;;5041108;28;20013;-82
2021/07/01 11:29:10;;;;;;;7.70;3.15;;;;;;;;;;5045346;28;20024;-82
2021/07/01 11:31:37;;;;;;;5.03;2.87;;;;;;;;;;5041894;28;20478;-83
2021/07/01 11:34:04;;;;;;;4.35;2.78;;;;;;;;;;5041172;28;20312;-81
2021/07/01 11:36:30;;;;;;;4.50;2.47;;;;;;;;;;5041654;28;20080;-82
2021/07/01 11:39:10;;;;;;;5.30;2.80;;;;;;;;;;5039779;28;20474;-82
2021/07/01 11:41:36;;;;;;;7.30;2.80;;;;;;;;;;5036537;28;20041;-81
2021/07/01 11:44:03;;;;;;;5.00;2.70;;;;;;;;;;5040099;28;20078;-82
2021/07/01 11:46:29;;;;;;;3.08;2.60;;;;;;;;;;5042418;28;20025;-81
2021/07/01 11:48:56;;;;;;;4.78;2.42;;;;;;;;;;5039339;28;20071;-82
2021/07/01 11:51:23;;;;;;;3.80;2.70;;;;;;;;;;5042029;28;20104;-82
2021/07/01 11:53:50;;;;;;;5.70;2.90;;;;;;;;;;5043218;28;20028;-84
2021/07/01 11:56:16;;;;;;;3.83;2.97;;;;;;;;;;5043056;28;20033;-82
2021/07/01 11:58:42;;;;;;;4.37;2.93;;;;;;;;;;5048810;28;20021;-82
2021/07/01 12:01:09;;;;;;;4.63;2.78;;;;;;;;;;5025167;28;20082;-82
2021/07/01 12:03:38;;;;;;;4.33;2.47;;;;;;;;;;5042271;28;20029;-82
2021/07/01 12:06:04;;;;;;;5.05;2.60;;;;;;;;;;5037488;28;20039;-82
2021/07/01 12:08:31;;;;;;;3.63;2.35;;;;;;;;;;5045937;28;20039;-81
2021/07/01 12:11:01;;;;;;;5.90;2.65;;;;;;;;;;5039303;28;20057;-83
2021/07/01 12:13:33;;;;;;;4.85;2.70;;;;;;;;;;5041907;28;20024;-82
2021/07/01 12:16:10;;;;;;;3.95;2.80;;;;;;;;;;5044016;28;20474;-82
2021/07/01 12:18:48;;;;;;;5.70;2.70;;;;;;;;;;5039712;28;20104;-82
2021/07/01 12:21:15;;;;;;;6.47;2.60;;;;;;;;;;5039633;28;20052;-82
2021/07/01 12:24:01;;;;;;;3.70;2.40;;;;;;;;;;5046331;28;20036;-83
2021/07/01 12:26:43;;;;;;;3.97;2.70;;;;;;;;;;5041086;28;20029;-81
2021/07/01 12:29:12;;;;;;;2.83;2.30;;;;;;;;;;5043265;28;20020;-82
2021/07/01 12:31:40;;;;;;;3.30;2.45;;;;;;;;;;5043826;28;20174;-82
2021/07/01 12:34:11;;;;;;;4.53;2.58;;;;;;;;;;5042050;28;20021;-82
2021/07/01 12:36:41;;;;;;;4.03;2.55;;;;;;;;;;5046754;28;20142;-82
2021/07/01 12:39:11;;;;;;;3.30;2.42;;;;;;;;;;5057299;28;20488;-82
2021/07/01 12:44:39;;;;;;;4.55;2.85;;;;;;;;;;5040291;28;20116;-82
2021/07/01 12:47:06;;;;;;;3.97;2.75;;;;;;;;;;5038818;28;20081;-82
2021/07/01 12:49:33;;;;;;;;;;;;;;;;;;5050065;28;20014;-81
2021/07/01 12:52:00;;;;;;;3.38;2.42;;;;;;;;;;5058390;28;19908;-83
2021/07/01 12:54:30;;;;;;;4.10;2.72;;;;;;;;;;5059927;28;20025;-86
2021/07/01 12:56:56;;;;;;;4.45;2.70;;;;;;;;;;5063548;28;20100;-85
2021/07/01 12:59:31;;;;;;;19.13;3.83;;;;;;;;;;5053517;28;20037;-85
2021/07/01 13:02:03;;;;;;;5.53;2.60;;;;;;;;;;5045162;28;20258;-84
2021/07/01 13:04:30;;;;;;;7.28;3.13;;;;;;;;;;5047958;28;20016;-85
2021/07/01 13:06:57;;;;;;;11.57;2.97;;;;;;;;;;5041426;28;20087;-83
2021/07/01 13:09:50;;;;;;;7.97;3.25;;;;;;;;;;5040535;28;20040;-84
2021/07/01 13:12:26;;;;;;;9.15;3.00;;;;;;;;;;5041092;28;20029;-78
2021/07/01 13:14:53;;;;;;;7.70;2.70;;;;;;;;;;5041851;28;20025;-85
2021/07/01 13:17:20;;;;;;;6.72;3.03;;;;;;;;;;5047453;28;20477;-86
2021/07/01 13:19:49;;;;;;;6.65;2.92;;;;;;;;;;5047276;28;20036;-83
2021/07/01 13:22:17;;;;;;;6.78;2.90;;;;;;;;;;4701840;28;9999732;-85
2021/07/01 13:24:58;;;;;;;4.95;3.30;;;;;;;;;;5050636;28;20029;-84
2021/07/01 13:27:33;;;;;;;9.45;3.20;;;;;;;;;;5048696;28;20033;-85
2021/07/01 13:30:00;;;;;;;5.65;3.15;;;;;;;;;;5044252;28;20043;-84
2021/07/01 13:32:26;;;;;;;6.88;3.88;;;;;;;;;;5043374;28;20118;-85
2021/07/01 13:34:52;;;;;;;6.28;3.10;;;;;;;;;;5047222;28;20111;-86
2021/07/01 13:37:20;;;;;;;4.07;2.97;;;;;;;;;;5045654;28;20124;-85
2021/07/01 13:39:47;;;;;;;5.75;3.40;;;;;;;;;;5045729;28;20044;-84
2021/07/01 13:42:27;;;;;;;4.40;3.30;;;;;;;;;;5054716;28;20540;-84
2021/07/01 13:44:57;;;;;;;7.00;3.60;;;;;;;;;;5047657;28;20435;-86
2021/07/01 13:47:23;;;;;;;5.93;3.40;;;;;;;;;;5045286;28;20028;-85
2021/07/01 13:49:49;;;;;;;5.78;3.80;;;;;;;;;;5054549;28;20021;-85
2021/07/01 13:52:19;;;;;;;6.20;3.87;;;;;;;;;;5052742;28;20064;-86
2021/07/01 13:54:45;;;;;;;6.03;3.22;;;;;;;;;;5056317;28;20042;-85
2021/07/01 13:57:11;;;;;;;9.02;3.30;;;;;;;;;;5042031;28;20032;-85
2021/07/01 13:59:38;;;;;;;5.37;3.20;;;;;;;;;;5041286;28;20041;-87
2021/07/01 14:02:04;;;;;;;;;;;;;;;;;;5042722;28;20071;-86
2021/07/01 14:04:42;;;;;;;6.40;3.20;;;;;;;;;;5040804;28;19909;-84
2021/07/01 14:07:08;;;;;;;5.75;3.15;;;;;;;;;;5043422;28;20018;-87
2021/07/01 14:09:34;;;;;;;7.32;3.28;;;;;;;;;;5045570;28;20550;-85
2021/07/01 14:12:00;;;;;;;4.97;3.20;;;;;;;;;;5036741;28;20809;-87
2021/07/01 14:14:26;;;;;;;4.88;3.30;;;;;;;;;;5043364;28;20096;-85
2021/07/01 14:16:53;;;;;;;5.30;3.60;;;;;;;;;;5042890;28;20101;-85
2021/07/01 14:19:19;;;;;;;;;;;;;;;;;;5039696;28;20298;-87
2021/07/01 14:21:48;;;;;;;5.22;3.40;;;;;;;;;;5039689;28;19956;-85
2021/07/01 14:24:16;;;;;;;5.55;3.30;;;;;;;;;;5038080;28;20705;-86
2021/07/01 14:26:46;;;;;;;4.85;3.08;;;;;;;;;;5043121;28;20025;-86
2021/07/01 14:29:12;;;;;;;4.72;3.33;;;;;;;;;;5044292;28;20025;-87
2021/07/01 14:31:39;;;;;;;5.00;3.40;;;;;;;;;;5042956;28;20021;-87
2021/07/01 14:34:05;;;;;;;3.22;2.92;;;;;;;;;;5042799;28;20033;-85
2021/07/01 14:36:32;;;;;;;3.83;3.00;;;;;;;;;;5044397;28;20041;-84
2021/07/01 14:39:06;;;;;;;5.35;3.42;;;;;;;;;;5044005;28;20082;-85
2021/07/01 14:41:32;;;;;;;4.55;3.08;;;;;;;;;;5043808;28;20384;-85
2021/07/01 14:43:58;;;;;;;4.57;3.15;;;;;;;;;;5049633;28;20066;-85
2021/07/01 14:46:32;;;;;;;4.10;3.27;;;;;;;;;;5045600;28;20509;-86
2021/07/01 14:48:59;;;;;;;4.93;3.00;;;;;;;;;;5050501;28;20626;-85
2021/07/01 14:51:30;;;;;;;12.43;3.63;;;;;;;;;;5045562;28;21579;-78
2021/07/01 14:54:11;;;;;;;5.80;3.17;;;;;;;;;;5044758;28;20044;-78